Contact Info

Augusta Flying Club, Inc

KDNL 212153Z AUTO 29008KT 10SM CLR 21/06 A3009 RMK AO2 SLP186 T02060061


TAF AMD KDNL 212036Z 2121/2218 31010KT P6SM SCT050 FM220000 VRB03KT P6SM SKC

info@augustaflyingclub.com

Send us a message